Time;durP1;ratioP1;P1;durP2;ratioP2;P2;SDS_P1;SDS_P2;PMS_P1;PMS_P2;Temp;Humidity;BMP_temperature;BMP_pressure;BME280_temperature;BME280_humidity;BME280_pressure;Samples;Min_cycle;Max_cycle;Signal;HPM_P1;HPM_P2
2022/12/14 00:01:57;;;;;;;4.00;1.90;;;;;;;;;;5051867;28;20040;-47
2022/12/14 00:04:23;;;;;;;2.28;1.52;;;;;;;;;;5078210;28;20030;-46
2022/12/14 00:06:49;;;;;;;1.90;1.40;;;;;;;;;;5082660;28;20020;-48
2022/12/14 00:09:15;;;;;;;2.83;1.65;;;;;;;;;;5090261;28;20491;-48
2022/12/14 00:11:41;;;;;;;3.83;2.22;;;;;;;;;;5088225;28;20032;-46
2022/12/14 00:14:07;;;;;;;3.53;2.42;;;;;;;;;;5090440;28;20776;-45
2022/12/14 00:16:34;;;;;;;2.65;1.80;;;;;;;;;;5089266;28;20028;-46
2022/12/14 00:19:01;;;;;;;2.78;1.90;;;;;;;;;;5090569;28;20024;-45
2022/12/14 00:21:28;;;;;;;3.55;2.25;;;;;;;;;;5080169;28;20020;-46
2022/12/14 00:23:54;;;;;;;4.25;2.15;;;;;;;;;;5091658;28;20059;-46
2022/12/14 00:26:21;;;;;;;2.40;1.83;;;;;;;;;;5084779;28;20489;-49
2022/12/14 00:28:48;;;;;;;3.50;2.10;;;;;;;;;;5080594;28;20382;-45
2022/12/14 00:31:14;;;;;;;2.88;2.10;;;;;;;;;;5089501;28;20028;-46
2022/12/14 00:33:40;;;;;;;3.47;1.92;;;;;;;;;;5090302;28;20103;-46
2022/12/14 00:36:07;;;;;;;3.65;2.38;;;;;;;;;;5091154;28;20055;-48
2022/12/14 00:38:34;;;;;;;2.58;1.75;;;;;;;;;;5083368;28;20129;-46
2022/12/14 00:41:00;;;;;;;2.92;2.13;;;;;;;;;;5090414;28;20063;-46
2022/12/14 00:43:26;;;;;;;4.00;1.90;;;;;;;;;;5090026;28;20024;-46
2022/12/14 00:45:52;;;;;;;2.50;2.22;;;;;;;;;;5091692;28;20020;-45
2022/12/14 00:48:19;;;;;;;3.20;1.70;;;;;;;;;;5089591;28;20028;-48
2022/12/14 00:50:45;;;;;;;2.78;1.90;;;;;;;;;;5079587;28;20043;-46
2022/12/14 00:53:11;;;;;;;3.70;2.28;;;;;;;;;;5085819;28;20052;-46
2022/12/14 00:55:38;;;;;;;2.65;1.60;;;;;;;;;;5069658;28;20481;-46
2022/12/14 00:58:04;;;;;;;3.83;2.45;;;;;;;;;;5081338;28;20530;-46
2022/12/14 01:00:31;;;;;;;2.35;1.70;;;;;;;;;;5069688;28;20036;-46
2022/12/14 01:02:57;;;;;;;3.20;1.92;;;;;;;;;;5071655;28;20020;-46
2022/12/14 01:05:23;;;;;;;3.55;1.80;;;;;;;;;;5066118;28;20025;-46
2022/12/14 01:07:49;;;;;;;2.55;1.52;;;;;;;;;;5066380;28;20154;-46
2022/12/14 01:10:15;;;;;;;2.60;1.92;;;;;;;;;;5074590;28;20020;-46
2022/12/14 01:12:41;;;;;;;3.20;1.90;;;;;;;;;;5067180;28;20028;-46
2022/12/14 01:15:07;;;;;;;3.67;1.88;;;;;;;;;;5074249;28;20027;-46
2022/12/14 01:17:33;;;;;;;2.22;1.95;;;;;;;;;;5073309;28;20381;-46
2022/12/14 01:19:59;;;;;;;1.95;1.40;;;;;;;;;;5073721;28;20039;-46
2022/12/14 01:22:25;;;;;;;2.83;1.67;;;;;;;;;;5072878;28;20036;-46
2022/12/14 01:24:51;;;;;;;2.75;1.90;;;;;;;;;;5074551;28;20028;-46
2022/12/14 01:27:17;;;;;;;2.88;1.60;;;;;;;;;;5074088;28;20032;-48
2022/12/14 01:29:43;;;;;;;5.50;2.25;;;;;;;;;;5066182;28;20089;-46
2022/12/14 01:32:09;;;;;;;1.60;1.30;;;;;;;;;;5073754;28;20032;-46
2022/12/14 01:34:34;;;;;;;2.38;1.63;;;;;;;;;;5074442;28;20024;-47
2022/12/14 01:37:01;;;;;;;4.22;1.85;;;;;;;;;;5072604;28;20021;-46
2022/12/14 01:39:26;;;;;;;3.05;1.80;;;;;;;;;;5073103;28;20032;-46
2022/12/14 01:41:52;;;;;;;3.78;1.63;;;;;;;;;;5073080;28;20040;-46
2022/12/14 01:44:18;;;;;;;2.67;1.60;;;;;;;;;;5073951;28;20029;-49
2022/12/14 01:46:48;;;;;;;2.83;1.70;;;;;;;;;;5073949;28;20081;-46
2022/12/14 01:49:22;;;;;;;2.22;1.63;;;;;;;;;;5074151;28;20025;-46
2022/12/14 01:51:54;;;;;;;2.83;1.67;;;;;;;;;;5068340;28;20032;-45
2022/12/14 01:54:21;;;;;;;3.88;1.55;;;;;;;;;;5081315;28;20396;-46
2022/12/14 01:56:47;;;;;;;2.67;1.90;;;;;;;;;;5094706;28;20497;-45
2022/12/14 01:59:17;;;;;;;4.10;1.80;;;;;;;;;;5103960;28;20035;-46
2022/12/14 02:01:43;;;;;;;3.13;2.20;;;;;;;;;;5084217;28;20041;-47
2022/12/14 02:04:10;;;;;;;2.80;2.10;;;;;;;;;;5097723;28;20032;-47
2022/12/14 02:06:39;;;;;;;2.03;1.48;;;;;;;;;;5082964;28;20058;-46
2022/12/14 02:09:07;;;;;;;2.33;1.77;;;;;;;;;;5093986;28;20113;-45
2022/12/14 02:11:44;;;;;;;1.98;1.48;;;;;;;;;;5091704;28;20115;-46
2022/12/14 02:14:10;;;;;;;2.92;1.58;;;;;;;;;;5093749;28;20020;-45
2022/12/14 02:16:36;;;;;;;2.65;1.92;;;;;;;;;;5092737;28;20708;-46
2022/12/14 02:19:02;;;;;;;2.70;1.67;;;;;;;;;;5086148;28;20036;-46
2022/12/14 02:21:34;;;;;;;3.50;2.00;;;;;;;;;;5090884;28;20074;-46
2022/12/14 02:24:18;;;;;;;2.72;1.65;;;;;;;;;;5094018;28;20020;-47
2022/12/14 02:27:03;;;;;;;2.40;1.90;;;;;;;;;;5093483;28;20052;-46
2022/12/14 02:29:29;;;;;;;2.90;1.60;;;;;;;;;;5092037;28;20489;-46
2022/12/14 02:31:55;;;;;;;4.03;2.13;;;;;;;;;;5092552;28;20464;-47
2022/12/14 02:34:33;;;;;;;2.15;1.50;;;;;;;;;;5092591;28;20020;-46
2022/12/14 02:37:02;;;;;;;2.33;1.70;;;;;;;;;;5085490;28;20025;-46
2022/12/14 02:39:40;;;;;;;2.50;2.13;;;;;;;;;;5092699;28;20038;-47
2022/12/14 02:42:12;;;;;;;2.22;1.60;;;;;;;;;;5072825;28;20024;-46
2022/12/14 02:44:38;;;;;;;2.00;1.60;;;;;;;;;;5092269;28;20111;-46
2022/12/14 02:47:13;;;;;;;2.03;1.48;;;;;;;;;;5092349;28;20107;-47
2022/12/14 02:49:39;;;;;;;2.10;1.70;;;;;;;;;;5092724;28;20031;-46
2022/12/14 02:52:24;;;;;;;2.05;1.63;;;;;;;;;;5091751;28;20028;-45
2022/12/14 02:54:54;;;;;;;3.30;1.90;;;;;;;;;;5092264;28;20044;-47
2022/12/14 02:57:33;;;;;;;2.40;1.67;;;;;;;;;;5098378;28;20019;-45
2022/12/14 03:00:01;;;;;;;2.35;1.80;;;;;;;;;;5095443;28;20016;-45
2022/12/14 03:02:28;;;;;;;2.40;1.65;;;;;;;;;;5091863;28;20475;-44
2022/12/14 03:04:54;;;;;;;2.42;1.83;;;;;;;;;;5095351;28;20039;-44
2022/12/14 03:07:31;;;;;;;2.92;2.10;;;;;;;;;;5082100;28;20031;-46
2022/12/14 03:10:00;;;;;;;2.53;1.60;;;;;;;;;;5072383;28;20036;-45
2022/12/14 03:12:26;;;;;;;2.20;1.60;;;;;;;;;;5087626;28;20114;-45
2022/12/14 03:14:53;;;;;;;2.00;1.55;;;;;;;;;;5092431;28;20024;-45
2022/12/14 03:17:27;;;;;;;1.95;1.48;;;;;;;;;;5091694;28;20016;-48
2022/12/14 03:19:55;;;;;;;2.53;1.85;;;;;;;;;;5092612;28;20034;-45
2022/12/14 03:22:34;;;;;;;1.88;1.45;;;;;;;;;;5089814;28;20028;-45
2022/12/14 03:25:08;;;;;;;2.53;1.60;;;;;;;;;;5092704;28;20036;-45
2022/12/14 03:27:36;;;;;;;2.88;1.77;;;;;;;;;;5091395;28;20043;-45
2022/12/14 03:30:06;;;;;;;2.67;2.00;;;;;;;;;;5067061;28;20044;-45
2022/12/14 03:32:34;;;;;;;2.15;1.80;;;;;;;;;;5091653;28;20111;-45
2022/12/14 03:35:04;;;;;;;1.95;1.50;;;;;;;;;;5091722;28;20069;-45
2022/12/14 03:37:41;;;;;;;2.67;2.00;;;;;;;;;;5090887;28;20107;-45
2022/12/14 03:40:09;;;;;;;2.28;1.65;;;;;;;;;;5091416;28;20064;-46
2022/12/14 03:42:58;;;;;;;2.38;1.77;;;;;;;;;;5091329;28;20131;-45
2022/12/14 03:45:29;;;;;;;2.42;1.80;;;;;;;;;;5076156;28;20044;-45
2022/12/14 03:48:13;;;;;;;3.08;2.05;;;;;;;;;;5091776;28;20024;-45
2022/12/14 03:50:52;;;;;;;2.97;1.83;;;;;;;;;;5089410;28;20020;-45
2022/12/14 03:53:37;;;;;;;2.63;1.85;;;;;;;;;;5091423;28;20032;-47
2022/12/14 03:56:15;;;;;;;2.85;1.77;;;;;;;;;;5091377;28;20035;-44
2022/12/14 03:58:41;;;;;;;2.10;1.70;;;;;;;;;;5099757;28;20028;-44
2022/12/14 04:01:16;;;;;;;2.67;1.60;;;;;;;;;;5077260;28;20032;-44
2022/12/14 04:03:42;;;;;;;2.45;1.67;;;;;;;;;;5094405;28;20027;-45
2022/12/14 04:06:13;;;;;;;3.63;1.58;;;;;;;;;;5082587;28;20021;-44
2022/12/14 04:08:53;;;;;;;2.40;1.90;;;;;;;;;;5090217;28;20028;-45
2022/12/14 04:20:09;;;;;;;2.60;1.63;;;;;;;;;;5010061;28;20037;-45
2022/12/14 04:22:38;;;;;;;3.08;1.98;;;;;;;;;;5087576;28;20111;-45
2022/12/14 04:29:54;;;;;;;2.38;1.60;;;;;;;;;;5091195;28;20066;-45
2022/12/14 04:30:57;;;;;;;2.28;1.73;;;;;;;;;;5074968;28;20111;-45
2022/12/14 04:36:08;;;;;;;2.08;1.40;;;;;;;;;;5087353;28;20449;-47
2022/12/14 04:38:35;;;;;;;2.20;1.45;;;;;;;;;;5087892;28;20024;-45
2022/12/14 04:41:13;;;;;;;2.28;1.55;;;;;;;;;;5062606;28;20441;-45
2022/12/14 04:43:42;;;;;;;2.63;1.90;;;;;;;;;;5091791;28;20806;-44
2022/12/14 04:46:11;;;;;;;2.05;1.42;;;;;;;;;;5096024;28;20021;-45
2022/12/14 04:48:46;;;;;;;2.20;1.70;;;;;;;;;;5094021;28;20024;-45
2022/12/14 04:51:12;;;;;;;2.95;1.70;;;;;;;;;;5094722;28;20047;-45
2022/12/14 04:53:40;;;;;;;2.33;1.50;;;;;;;;;;5084737;28;20024;-44
2022/12/14 04:56:12;;;;;;;2.40;1.83;;;;;;;;;;5095834;28;20465;-45
2022/12/14 04:58:39;;;;;;;1.77;1.40;;;;;;;;;;5105623;28;20287;-45
2022/12/14 05:01:32;;;;;;;1.92;1.42;;;;;;;;;;5094618;28;20431;-45
2022/12/14 05:04:04;;;;;;;2.00;1.40;;;;;;;;;;5098829;28;20575;-45
2022/12/14 05:06:37;;;;;;;2.22;1.63;;;;;;;;;;5081976;28;20028;-45
2022/12/14 05:09:14;;;;;;;2.13;1.75;;;;;;;;;;5086896;28;20040;-48
2022/12/14 05:11:46;;;;;;;2.80;1.60;;;;;;;;;;5090880;28;20035;-46
2022/12/14 05:14:17;;;;;;;1.73;1.30;;;;;;;;;;5095759;28;20046;-45
2022/12/14 05:16:43;;;;;;;2.33;1.60;;;;;;;;;;5094403;28;20032;-45
2022/12/14 05:19:09;;;;;;;2.85;1.77;;;;;;;;;;5093813;28;20031;-45
2022/12/14 05:21:47;;;;;;;2.60;1.98;;;;;;;;;;5093460;28;20109;-45
2022/12/14 05:24:13;;;;;;;2.50;1.77;;;;;;;;;;5094853;28;20028;-44
2022/12/14 05:26:40;;;;;;;1.75;1.50;;;;;;;;;;5086471;28;20024;-45
2022/12/14 05:29:06;;;;;;;2.90;1.50;;;;;;;;;;5093825;28;20024;-45
2022/12/14 05:31:32;;;;;;;2.65;2.05;;;;;;;;;;5075753;28;20393;-45
2022/12/14 05:33:58;;;;;;;2.05;1.58;;;;;;;;;;5073060;28;20355;-44
2022/12/14 05:36:24;;;;;;;2.35;1.85;;;;;;;;;;5093306;28;20073;-45
2022/12/14 05:38:50;;;;;;;2.30;1.60;;;;;;;;;;5094070;28;20020;-45
2022/12/14 05:41:16;;;;;;;2.45;1.70;;;;;;;;;;5093693;28;20032;-48
2022/12/14 05:43:42;;;;;;;1.98;1.55;;;;;;;;;;5086506;28;20036;-45
2022/12/14 05:46:10;;;;;;;2.42;1.80;;;;;;;;;;5094319;28;20465;-45
2022/12/14 05:48:36;;;;;;;1.90;1.50;;;;;;;;;;5093172;28;20031;-45
2022/12/14 05:51:06;;;;;;;1.95;1.75;;;;;;;;;;5091406;28;20050;-44
2022/12/14 05:53:32;;;;;;;2.38;1.67;;;;;;;;;;5091942;28;20413;-45
2022/12/14 05:55:58;;;;;;;2.90;2.25;;;;;;;;;;5092983;28;20016;-45
2022/12/14 05:58:24;;;;;;;1.77;1.30;;;;;;;;;;5104420;28;20026;-45
2022/12/14 06:00:50;;;;;;;2.88;1.88;;;;;;;;;;5080159;28;20386;-45
2022/12/14 06:03:16;;;;;;;2.35;1.60;;;;;;;;;;5088759;28;20040;-47
2022/12/14 06:05:42;;;;;;;2.65;1.95;;;;;;;;;;5087136;28;20024;-44
2022/12/14 06:08:08;;;;;;;2.47;1.45;;;;;;;;;;5090092;28;20031;-45
2022/12/14 06:10:34;;;;;;;2.63;1.85;;;;;;;;;;5091880;28;20016;-45
2022/12/14 06:13:00;;;;;;;2.47;1.75;;;;;;;;;;5093090;28;20043;-44
2022/12/14 06:15:27;;;;;;;3.15;2.13;;;;;;;;;;5090573;28;20024;-47
2022/12/14 06:17:53;;;;;;;2.53;1.80;;;;;;;;;;5093065;27;20070;-44
2022/12/14 06:20:19;;;;;;;2.05;1.40;;;;;;;;;;5092919;28;20027;-47
2022/12/14 06:22:45;;;;;;;2.90;1.90;;;;;;;;;;5093033;28;20477;-45
2022/12/14 06:25:12;;;;;;;2.53;2.25;;;;;;;;;;5093769;28;20024;-45
2022/12/14 06:27:38;;;;;;;2.20;1.60;;;;;;;;;;5091991;28;20024;-45
2022/12/14 06:30:04;;;;;;;2.50;1.77;;;;;;;;;;5093193;28;20019;-46
2022/12/14 06:32:30;;;;;;;3.22;1.95;;;;;;;;;;5083669;28;20036;-45
2022/12/14 06:34:56;;;;;;;4.72;2.10;;;;;;;;;;5093686;28;20035;-45
2022/12/14 06:37:22;;;;;;;2.45;1.77;;;;;;;;;;5090210;28;20031;-46
2022/12/14 06:39:48;;;;;;;2.65;2.10;;;;;;;;;;5093121;28;20020;-45
2022/12/14 06:42:14;;;;;;;2.72;1.83;;;;;;;;;;5090722;28;20488;-44
2022/12/14 06:44:40;;;;;;;2.53;1.80;;;;;;;;;;5084503;28;20408;-44
2022/12/14 06:47:06;;;;;;;3.95;1.70;;;;;;;;;;5085569;28;20032;-45
2022/12/14 06:49:32;;;;;;;2.75;1.60;;;;;;;;;;5062506;28;20035;-45
2022/12/14 06:51:58;;;;;;;2.33;1.83;;;;;;;;;;5087975;28;20032;-45
2022/12/14 06:54:24;;;;;;;3.05;1.88;;;;;;;;;;5090923;28;20166;-45
2022/12/14 06:56:50;;;;;;;2.05;1.65;;;;;;;;;;5093888;28;20020;-46
2022/12/14 06:59:16;;;;;;;2.47;1.92;;;;;;;;;;5100520;28;20431;-46
2022/12/14 07:01:42;;;;;;;2.95;1.80;;;;;;;;;;5091219;28;20484;-44
2022/12/14 07:04:09;;;;;;;4.35;1.92;;;;;;;;;;5096501;28;20099;-46
2022/12/14 07:06:39;;;;;;;3.92;1.75;;;;;;;;;;5082268;28;20052;-45
2022/12/14 07:09:06;;;;;;;3.88;1.45;;;;;;;;;;5091628;28;20079;-46
2022/12/14 07:11:32;;;;;;;4.57;2.20;;;;;;;;;;5089737;28;20032;-45
2022/12/14 07:14:06;;;;;;;2.50;1.70;;;;;;;;;;5080914;28;20043;-45
2022/12/14 07:16:32;;;;;;;2.42;1.70;;;;;;;;;;5090255;28;20023;-45
2022/12/14 07:18:59;;;;;;;6.53;1.83;;;;;;;;;;5092658;28;20016;-45
2022/12/14 07:21:25;;;;;;;5.82;2.17;;;;;;;;;;5090176;28;20032;-45
2022/12/14 07:23:51;;;;;;;1.85;1.60;;;;;;;;;;5083982;28;20048;-45
2022/12/14 07:26:19;;;;;;;4.13;2.17;;;;;;;;;;5092192;28;20481;-48
2022/12/14 07:28:45;;;;;;;2.63;1.80;;;;;;;;;;5091746;28;20016;-45
2022/12/14 07:31:19;;;;;;;1.92;1.30;;;;;;;;;;5091714;28;20053;-44
2022/12/14 07:33:45;;;;;;;2.70;1.77;;;;;;;;;;5091691;28;20070;-44
2022/12/14 07:36:12;;;;;;;2.55;1.55;;;;;;;;;;5092892;28;20024;-44
2022/12/14 07:38:39;;;;;;;2.70;1.73;;;;;;;;;;5090963;28;20186;-45
2022/12/14 07:41:05;;;;;;;3.22;1.85;;;;;;;;;;5089369;28;20418;-45
2022/12/14 07:43:31;;;;;;;3.75;2.25;;;;;;;;;;5091332;28;20024;-45
2022/12/14 07:46:01;;;;;;;3.03;1.70;;;;;;;;;;5084373;28;20999;-47
2022/12/14 07:48:27;;;;;;;2.75;2.20;;;;;;;;;;5082518;28;20046;-45
2022/12/14 07:50:53;;;;;;;3.63;2.35;;;;;;;;;;5088062;28;20028;-45
2022/12/14 07:53:19;;;;;;;2.40;1.60;;;;;;;;;;5079649;28;20229;-47
2022/12/14 07:55:45;;;;;;;2.92;1.85;;;;;;;;;;5082044;28;20102;-46
2022/12/14 07:58:11;;;;;;;4.72;1.70;;;;;;;;;;5082576;28;20059;-45
2022/12/14 08:00:37;;;;;;;1.80;1.45;;;;;;;;;;5076981;28;20680;-46
2022/12/14 08:03:03;;;;;;;2.58;1.85;;;;;;;;;;5079581;28;20028;-45
2022/12/14 08:05:29;;;;;;;4.10;2.03;;;;;;;;;;5085983;28;20020;-45
2022/12/14 08:07:55;;;;;;;3.53;2.30;;;;;;;;;;5085972;28;20028;-46
2022/12/14 08:10:21;;;;;;;2.30;1.70;;;;;;;;;;5090369;28;20016;-46
2022/12/14 08:12:49;;;;;;;4.70;2.35;;;;;;;;;;5079710;28;20143;-46
2022/12/14 08:15:15;;;;;;;3.33;1.75;;;;;;;;;;5080120;28;20376;-45
2022/12/14 08:17:41;;;;;;;2.80;1.63;;;;;;;;;;5085293;28;20020;-46
2022/12/14 08:20:07;;;;;;;4.35;1.85;;;;;;;;;;5090833;28;20052;-45
2022/12/14 08:22:33;;;;;;;3.75;2.08;;;;;;;;;;5084768;28;20060;-45
2022/12/14 08:24:59;;;;;;;4.20;2.10;;;;;;;;;;5089762;28;20060;-44
2022/12/14 08:27:25;;;;;;;2.53;1.83;;;;;;;;;;5090450;28;20055;-44
2022/12/14 08:29:51;;;;;;;3.28;2.15;;;;;;;;;;5090195;28;20023;-45
2022/12/14 08:32:17;;;;;;;2.72;1.77;;;;;;;;;;5085594;28;20443;-47
2022/12/14 08:34:43;;;;;;;3.15;1.90;;;;;;;;;;5090945;28;20028;-45
2022/12/14 08:37:09;;;;;;;3.28;1.80;;;;;;;;;;5090914;28;20476;-44
2022/12/14 08:39:35;;;;;;;4.18;2.17;;;;;;;;;;5090259;28;20012;-46
2022/12/14 08:42:01;;;;;;;1.85;1.60;;;;;;;;;;5085945;28;20044;-45
2022/12/14 08:44:27;;;;;;;4.32;2.17;;;;;;;;;;5090278;28;20040;-45
2022/12/14 08:46:53;;;;;;;2.50;1.80;;;;;;;;;;5080860;28;20025;-44
2022/12/14 08:49:20;;;;;;;3.80;1.90;;;;;;;;;;5090870;28;20043;-47
2022/12/14 08:51:46;;;;;;;2.00;1.75;;;;;;;;;;5082555;28;20372;-45
2022/12/14 08:54:12;;;;;;;2.65;2.00;;;;;;;;;;5090920;28;20131;-45
2022/12/14 08:56:39;;;;;;;3.63;2.42;;;;;;;;;;5089848;28;20100;-45
2022/12/14 08:59:05;;;;;;;2.58;2.03;;;;;;;;;;5101823;28;20028;-45
2022/12/14 09:01:31;;;;;;;2.78;1.88;;;;;;;;;;5085751;28;20020;-45
2022/12/14 09:04:01;;;;;;;2.75;1.70;;;;;;;;;;5083109;28;20385;-45
2022/12/14 09:06:27;;;;;;;3.35;1.90;;;;;;;;;;5081359;28;20031;-45
2022/12/14 09:08:54;;;;;;;2.92;1.90;;;;;;;;;;5086281;28;20020;-45
2022/12/14 09:11:20;;;;;;;2.92;1.98;;;;;;;;;;5086774;28;20028;-47
2022/12/14 09:13:47;;;;;;;3.47;1.88;;;;;;;;;;5091694;28;20063;-45
2022/12/14 09:16:14;;;;;;;2.78;1.85;;;;;;;;;;5093179;28;20053;-45
2022/12/14 09:18:40;;;;;;;2.42;1.85;;;;;;;;;;5089423;28;20028;-44
2022/12/14 09:21:06;;;;;;;2.53;1.85;;;;;;;;;;5082607;28;20118;-45
2022/12/14 09:23:33;;;;;;;4.25;2.28;;;;;;;;;;5089903;28;20130;-45
2022/12/14 09:26:04;;;;;;;2.95;1.83;;;;;;;;;;5091024;28;20027;-44
2022/12/14 09:28:31;;;;;;;4.07;2.50;;;;;;;;;;5085294;28;20481;-45
2022/12/14 09:30:58;;;;;;;3.30;2.50;;;;;;;;;;5085314;28;20070;-45
2022/12/14 09:33:25;;;;;;;3.97;2.28;;;;;;;;;;5093700;28;20012;-45
2022/12/14 09:35:51;;;;;;;3.13;1.95;;;;;;;;;;5094572;28;20381;-45
2022/12/14 09:38:17;;;;;;;2.90;2.08;;;;;;;;;;5092886;28;20024;-48
2022/12/14 09:40:48;;;;;;;3.15;1.92;;;;;;;;;;5088295;28;20029;-44
2022/12/14 09:43:26;;;;;;;3.35;2.03;;;;;;;;;;5093910;28;20024;-44
2022/12/14 09:45:54;;;;;;;2.97;2.03;;;;;;;;;;5097757;28;20016;-45
2022/12/14 09:48:22;;;;;;;2.92;1.95;;;;;;;;;;5091354;28;20024;-47
2022/12/14 09:50:48;;;;;;;5.35;2.00;;;;;;;;;;5078050;28;20028;-45
2022/12/14 09:53:15;;;;;;;3.88;2.50;;;;;;;;;;5093817;28;20016;-45
2022/12/14 09:55:51;;;;;;;4.28;2.00;;;;;;;;;;5092298;28;20070;-45
2022/12/14 09:58:19;;;;;;;5.15;1.73;;;;;;;;;;5095224;28;20052;-47
2022/12/14 10:00:48;;;;;;;3.20;2.60;;;;;;;;;;5080745;28;20028;-44
2022/12/14 10:03:33;;;;;;;2.42;1.98;;;;;;;;;;5094088;28;20123;-45
2022/12/14 10:06:20;;;;;;;2.70;1.80;;;;;;;;;;5094188;28;20028;-45
2022/12/14 10:08:49;;;;;;;2.88;1.90;;;;;;;;;;5092457;28;20016;-44
2022/12/14 10:11:20;;;;;;;3.40;2.30;;;;;;;;;;5086315;28;20438;-45
2022/12/14 10:13:46;;;;;;;2.53;1.90;;;;;;;;;;5093363;28;20031;-45
2022/12/14 10:16:19;;;;;;;3.20;1.60;;;;;;;;;;5091443;28;20028;-45
2022/12/14 10:18:51;;;;;;;2.92;2.03;;;;;;;;;;5086312;28;20036;-45
2022/12/14 10:21:21;;;;;;;3.42;2.47;;;;;;;;;;5093201;28;20532;-48
2022/12/14 10:23:54;;;;;;;2.75;2.25;;;;;;;;;;5083423;28;20027;-45
2022/12/14 10:26:22;;;;;;;3.88;2.40;;;;;;;;;;5082656;28;20369;-47
2022/12/14 10:28:51;;;;;;;3.92;2.17;;;;;;;;;;5087325;28;20035;-45
2022/12/14 10:31:31;;;;;;;4.00;2.55;;;;;;;;;;5091775;28;20358;-47
2022/12/14 10:34:00;;;;;;;3.75;2.05;;;;;;;;;;5092558;28;20085;-45
2022/12/14 10:36:29;;;;;;;4.65;2.33;;;;;;;;;;5087863;28;20056;-45
2022/12/14 10:39:06;;;;;;;3.63;2.35;;;;;;;;;;5091179;28;20028;-47
2022/12/14 10:41:32;;;;;;;3.35;2.15;;;;;;;;;;5082688;28;20032;-45
2022/12/14 10:44:04;;;;;;;3.08;2.28;;;;;;;;;;5084606;28;20069;-46
2022/12/14 10:46:48;;;;;;;2.97;1.75;;;;;;;;;;5089655;28;20058;-45
2022/12/14 10:49:22;;;;;;;3.38;2.22;;;;;;;;;;5090458;28;20066;-46
2022/12/14 10:52:18;;;;;;;3.30;2.20;;;;;;;;;;5084467;28;20016;-46
2022/12/14 10:54:49;;;;;;;3.13;2.05;;;;;;;;;;5072571;28;20043;-45
2022/12/14 10:57:19;;;;;;;2.83;2.03;;;;;;;;;;5090281;28;20109;-46
2022/12/14 10:59:45;;;;;;;3.22;2.35;;;;;;;;;;5092434;28;20484;-46
2022/12/14 11:02:15;;;;;;;2.83;1.88;;;;;;;;;;5081803;28;20028;-46
2022/12/14 11:04:51;;;;;;;2.83;2.15;;;;;;;;;;5093981;28;20028;-46
2022/12/14 11:07:19;;;;;;;2.75;2.00;;;;;;;;;;5089451;28;20047;-48
2022/12/14 11:09:45;;;;;;;2.75;2.40;;;;;;;;;;5083867;28;20020;-46
2022/12/14 11:12:17;;;;;;;2.80;2.10;;;;;;;;;;5092426;28;20032;-46
2022/12/14 11:14:43;;;;;;;;;;;;;;;;;;5092441;28;20024;-46
2022/12/14 11:17:27;;;;;;;4.28;2.53;;;;;;;;;;5082094;28;19908;-47
2022/12/14 11:20:13;;;;;;;3.47;2.20;;;;;;;;;;5091278;28;20027;-46
2022/12/14 11:22:46;;;;;;;3.72;2.40;;;;;;;;;;5091094;28;20099;-46
2022/12/14 11:25:34;;;;;;;3.42;2.22;;;;;;;;;;5088083;28;20035;-47
2022/12/14 11:28:02;;;;;;;4.22;2.67;;;;;;;;;;5088940;28;20359;-45
2022/12/14 11:30:28;;;;;;;4.30;2.20;;;;;;;;;;5083399;28;20020;-45
2022/12/14 11:32:54;;;;;;;3.05;2.15;;;;;;;;;;5091326;28;20037;-45
2022/12/14 11:35:21;;;;;;;3.72;2.35;;;;;;;;;;5087913;28;20487;-48
2022/12/14 11:37:50;;;;;;;3.53;2.50;;;;;;;;;;5085900;28;20099;-47
2022/12/14 11:40:22;;;;;;;3.78;2.30;;;;;;;;;;5079530;28;20030;-46
2022/12/14 11:42:49;;;;;;;3.42;2.17;;;;;;;;;;5092021;28;20035;-46
2022/12/14 11:45:30;;;;;;;4.15;2.75;;;;;;;;;;5089165;28;20035;-46
2022/12/14 11:48:14;;;;;;;3.35;2.42;;;;;;;;;;5078580;28;20032;-47
2022/12/14 11:50:41;;;;;;;4.63;3.05;;;;;;;;;;5091341;28;20039;-47
2022/12/14 11:53:11;;;;;;;3.63;2.50;;;;;;;;;;5089439;28;20016;-47
2022/12/14 11:55:38;;;;;;;2.90;2.22;;;;;;;;;;5076348;28;20045;-47
2022/12/14 11:58:05;;;;;;;3.78;2.35;;;;;;;;;;5089083;28;20020;-47
2022/12/14 12:00:34;;;;;;;6.20;2.67;;;;;;;;;;5091201;28;20054;-46
2022/12/14 12:03:01;;;;;;;3.67;2.55;;;;;;;;;;5079873;28;20495;-46
2022/12/14 12:05:28;;;;;;;3.60;2.67;;;;;;;;;;5086620;28;20016;-47
2022/12/14 12:07:56;;;;;;;3.47;2.40;;;;;;;;;;5085764;28;20060;-47
2022/12/14 12:10:24;;;;;;;4.50;2.80;;;;;;;;;;5083343;28;20035;-46
2022/12/14 12:12:59;;;;;;;5.82;2.60;;;;;;;;;;5080625;28;20716;-44
2022/12/14 12:15:30;;;;;;;4.03;2.83;;;;;;;;;;5085642;28;20350;-46
2022/12/14 12:18:00;;;;;;;5.03;2.78;;;;;;;;;;5080549;28;20125;-45
2022/12/14 12:20:39;;;;;;;4.35;2.33;;;;;;;;;;5084504;28;20564;-44
2022/12/14 12:23:14;;;;;;;5.15;2.70;;;;;;;;;;5090566;28;20484;-45
2022/12/14 12:25:41;;;;;;;4.43;3.45;;;;;;;;;;5088689;28;20745;-45
2022/12/14 12:28:16;;;;;;;3.63;2.17;;;;;;;;;;5080212;28;20048;-45
2022/12/14 12:30:45;;;;;;;3.85;2.47;;;;;;;;;;5089546;28;20028;-45
2022/12/14 12:33:18;;;;;;;4.70;2.70;;;;;;;;;;5090360;28;20375;-45
2022/12/14 12:35:47;;;;;;;4.50;3.17;;;;;;;;;;5084531;28;20077;-45
2022/12/14 12:38:17;;;;;;;4.60;2.78;;;;;;;;;;5087892;28;20103;-44
2022/12/14 12:41:02;;;;;;;5.65;3.97;;;;;;;;;;5084274;28;20103;-44
2022/12/14 12:43:33;;;;;;;3.72;2.10;;;;;;;;;;5089315;28;20031;-46
2022/12/14 12:46:01;;;;;;;2.40;1.98;;;;;;;;;;5080172;28;20016;-45
2022/12/14 12:48:37;;;;;;;5.43;2.63;;;;;;;;;;5088016;28;20020;-44
2022/12/14 12:51:05;;;;;;;4.32;2.63;;;;;;;;;;5080811;28;20381;-44
2022/12/14 12:53:36;;;;;;;4.78;2.40;;;;;;;;;;5089705;28;20020;-44
2022/12/14 12:56:11;;;;;;;3.22;2.55;;;;;;;;;;5079172;28;20110;-44
2022/12/14 12:58:38;;;;;;;4.95;2.55;;;;;;;;;;5087543;28;20032;-45
2022/12/14 13:01:24;;;;;;;4.93;3.22;;;;;;;;;;5088505;28;20099;-44
2022/12/14 13:03:51;;;;;;;4.47;3.00;;;;;;;;;;5077275;28;20043;-45
2022/12/14 13:06:22;;;;;;;3.67;3.15;;;;;;;;;;5083749;28;20024;-47
2022/12/14 13:08:53;;;;;;;4.40;2.90;;;;;;;;;;5093677;28;20020;-44
2022/12/14 13:11:21;;;;;;;4.32;2.67;;;;;;;;;;5092754;28;20638;-47
2022/12/14 13:13:51;;;;;;;4.60;2.60;;;;;;;;;;5095016;28;20091;-44
2022/12/14 13:16:29;;;;;;;5.65;3.55;;;;;;;;;;5090727;28;20023;-46
2022/12/14 13:19:00;;;;;;;5.43;2.40;;;;;;;;;;5092255;28;20103;-45
2022/12/14 13:21:55;;;;;;;4.47;3.03;;;;;;;;;;5092486;28;20040;-44
2022/12/14 13:24:21;;;;;;;4.15;2.78;;;;;;;;;;5073649;28;20041;-44
2022/12/14 13:26:49;;;;;;;4.68;3.17;;;;;;;;;;5096849;28;20024;-44
2022/12/14 13:29:33;;;;;;;6.72;3.92;;;;;;;;;;5094148;28;20024;-45
2022/12/14 13:31:59;;;;;;;3.50;2.63;;;;;;;;;;5104602;28;20028;-45
2022/12/14 13:34:35;;;;;;;5.63;3.22;;;;;;;;;;5092071;28;20024;-46
2022/12/14 13:37:04;;;;;;;3.63;2.67;;;;;;;;;;5094073;28;20077;-45
2022/12/14 13:39:33;;;;;;;4.38;2.58;;;;;;;;;;5081874;28;20105;-45
2022/12/14 13:41:59;;;;;;;4.68;2.80;;;;;;;;;;5087315;28;20495;-45
2022/12/14 13:44:54;;;;;;;3.63;2.63;;;;;;;;;;5091350;28;20040;-45
2022/12/14 13:47:22;;;;;;;5.30;3.40;;;;;;;;;;5102268;28;20076;-47
2022/12/14 13:49:55;;;;;;;5.78;3.10;;;;;;;;;;5088559;28;20020;-45
2022/12/14 13:52:41;;;;;;;4.22;2.92;;;;;;;;;;5085602;28;20032;-47
2022/12/14 13:55:33;;;;;;;4.70;3.22;;;;;;;;;;5092172;28;20108;-45
2022/12/14 13:57:59;;;;;;;;;;;;;;;;;;5098058;28;20068;-47
2022/12/14 14:00:46;;;;;;;5.32;3.05;;;;;;;;;;5084106;28;19943;-45
2022/12/14 14:03:31;;;;;;;5.00;2.63;;;;;;;;;;5069847;28;20051;-46
2022/12/14 14:06:00;;;;;;;6.15;3.88;;;;;;;;;;5093889;28;20020;-45
2022/12/14 14:08:27;;;;;;;4.75;3.25;;;;;;;;;;5091340;28;20032;-46
2022/12/14 14:10:53;;;;;;;5.90;3.95;;;;;;;;;;5092695;28;20024;-45
2022/12/14 14:13:28;;;;;;;6.07;4.05;;;;;;;;;;5092988;28;20023;-48
2022/12/14 14:15:56;;;;;;;4.28;3.20;;;;;;;;;;5092136;28;20408;-45
2022/12/14 14:18:24;;;;;;;5.15;3.13;;;;;;;;;;5089704;28;20028;-45
2022/12/14 14:20:51;;;;;;;5.72;3.05;;;;;;;;;;5092807;28;20473;-45
2022/12/14 14:23:17;;;;;;;4.63;3.20;;;;;;;;;;5092232;28;20061;-47
2022/12/14 14:25:46;;;;;;;6.47;3.88;;;;;;;;;;5087407;28;20031;-44
2022/12/14 14:28:13;;;;;;;6.60;3.70;;;;;;;;;;5084695;28;20423;-45
2022/12/14 14:30:58;;;;;;;5.00;3.00;;;;;;;;;;5092355;28;20141;-45
2022/12/14 14:33:28;;;;;;;4.97;2.80;;;;;;;;;;5092295;28;20421;-45
2022/12/14 14:36:06;;;;;;;5.25;2.95;;;;;;;;;;5092239;28;20032;-45
2022/12/14 14:38:32;;;;;;;5.55;2.65;;;;;;;;;;5086332;28;20107;-45
2022/12/14 14:41:00;;;;;;;3.85;2.63;;;;;;;;;;5078707;28;20024;-45
2022/12/14 14:43:31;;;;;;;5.80;3.92;;;;;;;;;;5091160;28;20020;-45
2022/12/14 14:46:01;;;;;;;4.53;3.15;;;;;;;;;;5096781;28;20036;-45
2022/12/14 14:48:35;;;;;;;5.20;2.80;;;;;;;;;;5092055;28;20121;-45
2022/12/14 14:51:03;;;;;;;7.18;3.65;;;;;;;;;;5086755;28;20043;-45
2022/12/14 14:53:30;;;;;;;5.32;3.38;;;;;;;;;;5088271;28;20031;-45
2022/12/14 14:56:20;;;;;;;4.82;3.35;;;;;;;;;;5081548;28;20020;-46
2022/12/14 14:58:46;;;;;;;4.78;2.92;;;;;;;;;;5092004;28;20043;-45
2022/12/14 15:01:16;;;;;;;4.95;3.63;;;;;;;;;;5083148;28;20421;-46
2022/12/14 15:03:42;;;;;;;4.32;3.10;;;;;;;;;;5080506;28;20036;-46
2022/12/14 15:06:20;;;;;;;4.88;3.55;;;;;;;;;;5090044;28;20028;-45
2022/12/14 15:08:49;;;;;;;6.25;3.00;;;;;;;;;;5092558;28;20027;-45
2022/12/14 15:11:17;;;;;;;5.68;3.10;;;;;;;;;;5092746;28;20423;-46
2022/12/14 15:13:57;;;;;;;5.20;3.05;;;;;;;;;;5089443;28;20028;-46